Wheatley, Arkansas
Current Conditions -  °F | °C
As of 9:15 PM on Thursday 18 Dec 2014 (Local Time) from KSGT Reporting Station
Overcast Overcast  
Wind Chill: 39°   Ceiling: 3700
Heat Index: 43°   Visibility: NA
Dew Point: 39°   Wind: 7mph
Humidity: 87%   Direction: 50°NE
Pressure: 30.23"   Gusts: NA
Location:  34.91°N, 91.11°W
Report Text: KSGT 190315Z 05006KT OVC037 06/04 A3023 RMK AO1
Loading
Personal Weather Stations






























Interactive Weather Map New forecast layout! Learn more

10-Day Weather Forecast

Advertisements
Track Severe Weather on mobile